createdAt,value
2019-01-27T00:04:18.877Z,1.10
2019-01-27T00:09:25.188Z,1.07
2019-01-27T00:14:31.886Z,0.90
2019-01-27T00:19:38.005Z,1.13
2019-01-27T00:24:43.724Z,2.00
2019-01-27T00:29:56.209Z,1.27
2019-01-27T00:35:03.727Z,1.40
2019-01-27T00:40:11.244Z,1.13
2019-01-27T00:45:17.705Z,2.00
2019-01-27T00:50:24.042Z,1.20
2019-01-27T00:55:30.727Z,1.20
2019-01-27T01:00:37.780Z,0.90
2019-01-27T01:05:45.527Z,1.43
2019-01-27T01:10:51.293Z,2.23
2019-01-27T01:15:57.336Z,1.20
2019-01-27T01:21:05.222Z,0.90
2019-01-27T01:26:12.957Z,1.00
2019-01-27T01:31:21.435Z,1.20
2019-01-27T01:36:28.898Z,0.80
2019-01-27T01:41:35.805Z,1.57
2019-01-27T01:46:42.168Z,1.60
2019-01-27T01:51:48.994Z,0.70
2019-01-27T01:56:55.601Z,1.10
2019-01-27T02:02:00.489Z,1.30
2019-01-27T02:07:09.476Z,1.23
2019-01-27T02:12:15.902Z,1.37
2019-01-27T02:17:21.475Z,2.40
2019-01-27T02:22:29.000Z,1.50
2019-01-27T02:27:35.871Z,1.07
2019-01-27T02:32:42.461Z,0.60
2019-01-27T02:37:49.939Z,0.80
2019-01-27T02:42:56.374Z,0.90
2019-01-27T02:48:03.294Z,1.10
2019-01-27T02:53:09.241Z,0.60
2019-01-27T02:58:15.347Z,0.87
2019-01-27T03:03:23.121Z,0.60
2019-01-27T03:08:36.139Z,0.80
2019-01-27T03:13:41.598Z,1.47
2019-01-27T03:18:48.040Z,0.63
2019-01-27T03:23:55.166Z,0.50
2019-01-27T03:29:01.748Z,0.93
2019-01-27T03:34:09.884Z,0.97
2019-01-27T03:39:15.066Z,1.87
2019-01-27T03:44:21.449Z,1.13
2019-01-27T03:49:28.343Z,1.23
2019-01-27T03:54:35.750Z,1.73
2019-01-27T03:59:42.021Z,2.03
2019-01-27T04:04:49.308Z,1.20
2019-01-27T04:09:57.560Z,1.43
2019-01-27T04:15:03.944Z,1.40
2019-01-27T04:20:16.648Z,1.23
2019-01-27T04:25:22.582Z,1.00
2019-01-27T04:30:32.327Z,3.10
2019-01-27T04:35:39.607Z,0.60
2019-01-27T04:40:47.296Z,0.83
2019-01-27T04:45:55.260Z,0.70
2019-01-27T04:51:02.124Z,0.77
2019-01-27T04:56:10.486Z,0.53
2019-01-27T05:01:16.225Z,0.93
2019-01-27T05:06:22.583Z,2.00
2019-01-27T05:11:28.500Z,0.37
2019-01-27T05:16:36.902Z,0.37
2019-01-27T05:21:43.845Z,0.20
2019-01-27T05:26:50.112Z,0.20
2019-01-27T05:31:56.727Z,0.60
2019-01-27T05:37:05.750Z,0.37
2019-01-27T05:42:12.961Z,2.93
2019-01-27T05:47:20.261Z,1.50
2019-01-27T05:52:26.814Z,1.43
2019-01-27T05:57:33.294Z,0.70
2019-01-27T06:02:40.205Z,0.83
2019-01-27T06:07:47.185Z,1.50
2019-01-27T06:12:54.417Z,1.23
2019-01-27T06:18:01.686Z,0.67
2019-01-27T06:23:07.793Z,1.23
2019-01-27T06:28:15.020Z,0.33
2019-01-27T06:33:50.052Z,0.30
2019-01-27T06:38:55.816Z,1.03
2019-01-27T06:44:01.728Z,0.30
2019-01-27T06:49:07.981Z,0.30
2019-01-27T06:54:15.256Z,0.53
2019-01-27T06:59:34.618Z,0.30
2019-01-27T07:04:49.561Z,0.53
2019-01-27T07:10:03.910Z,0.60
2019-01-27T07:15:40.913Z,1.47
2019-01-27T07:21:08.892Z,1.93
2019-01-27T07:26:41.898Z,2.00
2019-01-27T07:32:07.217Z,0.83
2019-01-27T07:37:30.476Z,2.43
2019-01-27T07:43:00.124Z,1.50
2019-01-27T07:48:32.337Z,2.53
2019-01-27T07:54:15.864Z,0.77
2019-01-27T07:59:47.832Z,1.33
2019-01-27T08:05:01.346Z,1.43
2019-01-27T08:10:17.840Z,1.33
2019-01-27T08:15:51.083Z,1.93
2019-01-27T08:21:31.613Z,2.27
2019-01-27T08:27:05.542Z,1.63
2019-01-27T08:32:38.251Z,1.60
2019-01-27T08:38:11.958Z,1.40
2019-01-27T08:43:50.561Z,1.53
2019-01-27T08:48:56.336Z,1.20
2019-01-27T08:54:02.221Z,1.77
2019-01-27T08:59:08.159Z,2.07
2019-01-27T09:04:19.717Z,1.73
2019-01-27T09:15:51.833Z,1.07
2019-01-27T09:21:29.437Z,3.53
2019-01-27T09:26:41.675Z,1.43
2019-01-27T09:32:06.861Z,1.50
2019-01-27T09:37:32.587Z,2.47
2019-01-27T09:43:00.232Z,3.17
2019-01-27T09:48:15.794Z,3.53
2019-01-27T09:53:41.804Z,1.70
2019-01-27T09:59:15.775Z,4.67
2019-01-27T10:04:40.078Z,3.63
2019-01-27T10:10:09.891Z,2.67
2019-01-27T10:15:29.797Z,2.33
2019-01-27T10:20:53.453Z,3.40
2019-01-27T10:26:05.805Z,2.30
2019-01-27T10:31:34.117Z,3.20
2019-01-27T10:37:11.971Z,1.67
2019-01-27T10:42:25.938Z,4.10
2019-01-27T10:47:42.135Z,3.07
2019-01-27T10:53:20.799Z,3.77
2019-01-27T10:58:55.485Z,2.47
2019-01-27T11:04:25.772Z,2.53
2019-01-27T11:09:57.318Z,1.97
2019-01-27T11:15:20.317Z,2.97
2019-01-27T11:26:52.504Z,3.50
2019-01-27T11:32:16.668Z,4.30
2019-01-27T11:37:50.283Z,4.97
2019-01-27T11:43:18.709Z,3.13
2019-01-27T11:48:42.360Z,3.03
2019-01-27T11:53:50.197Z,2.50
2019-01-27T11:58:57.424Z,2.20
2019-01-27T12:04:04.930Z,4.63
2019-01-27T12:09:11.365Z,2.73
2019-01-27T12:14:17.050Z,4.27
2019-01-27T12:19:25.193Z,4.47
2019-01-27T12:24:36.606Z,3.10
2019-01-27T12:29:43.987Z,4.27
2019-01-27T12:34:50.143Z,2.83
2019-01-27T12:39:57.782Z,3.17
2019-01-27T12:45:05.281Z,2.80
2019-01-27T12:50:15.576Z,4.90
2019-01-27T12:55:21.554Z,0.83
2019-01-27T13:00:49.741Z,2.70
2019-01-27T13:05:56.220Z,1.93
2019-01-27T13:11:05.623Z,1.37
2019-01-27T13:16:12.129Z,1.83
2019-01-27T13:21:17.574Z,1.57
2019-01-27T13:26:47.175Z,4.27
2019-01-27T13:31:57.266Z,2.43
2019-01-27T13:37:03.765Z,2.47
2019-01-27T13:42:10.387Z,3.23
2019-01-27T13:47:16.568Z,5.77
2019-01-27T13:53:01.902Z,5.53
2019-01-27T13:58:10.826Z,5.30
2019-01-27T14:03:17.382Z,8.30
2019-01-27T14:09:16.878Z,9.33
2019-01-27T14:15:15.724Z,7.53
2019-01-27T14:20:31.241Z,10.17
2019-01-27T14:25:37.601Z,10.37
2019-01-27T14:30:46.328Z,8.87
2019-01-27T14:35:52.806Z,8.37
2019-01-27T14:40:59.811Z,11.80
2019-01-27T14:46:05.997Z,8.53
2019-01-27T14:51:13.230Z,7.43
2019-01-27T14:56:18.593Z,5.27
2019-01-27T15:01:24.874Z,6.67
2019-01-27T15:06:31.256Z,5.70
2019-01-27T15:11:36.843Z,5.33
2019-01-27T15:16:44.285Z,6.87
2019-01-27T15:21:51.193Z,6.43
2019-01-27T15:26:59.250Z,6.60
2019-01-27T15:32:07.316Z,3.80
2019-01-27T15:37:13.490Z,3.33
2019-01-27T15:42:18.876Z,3.20
2019-01-27T15:47:25.155Z,2.13
2019-01-27T15:52:32.481Z,1.60
2019-01-27T15:57:38.618Z,2.13
2019-01-27T16:02:45.774Z,2.13
2019-01-27T16:07:51.258Z,3.90
2019-01-27T16:12:58.054Z,3.17
2019-01-27T16:18:04.495Z,5.50
2019-01-27T16:23:29.573Z,5.73
2019-01-27T16:28:35.924Z,3.53
2019-01-27T16:33:53.003Z,3.37
2019-01-27T16:38:58.972Z,6.07
2019-01-27T16:44:05.270Z,5.97
2019-01-27T16:49:11.788Z,8.10
2019-01-27T16:54:17.268Z,4.80
2019-01-27T16:59:23.241Z,8.10
2019-01-27T17:04:29.122Z,5.23
2019-01-27T17:09:35.088Z,7.30
2019-01-27T17:14:43.213Z,8.13
2019-01-27T17:19:50.221Z,9.23
2019-01-27T17:24:56.929Z,7.27
2019-01-27T17:30:02.478Z,8.50
2019-01-27T17:35:09.682Z,10.10
2019-01-27T17:40:16.785Z,8.53
2019-01-27T17:45:22.848Z,15.03
2019-01-27T17:50:31.292Z,13.37
2019-01-27T17:55:43.711Z,10.33
2019-01-27T18:01:17.314Z,11.87
2019-01-27T18:06:31.134Z,11.67
2019-01-27T18:11:43.959Z,11.07
2019-01-27T18:16:49.564Z,13.33
2019-01-27T18:21:55.299Z,12.23
2019-01-27T18:27:00.637Z,11.53
2019-01-27T18:32:07.244Z,8.97
2019-01-27T18:37:16.074Z,9.07
2019-01-27T18:42:21.933Z,8.17
2019-01-27T18:47:27.166Z,10.37
2019-01-27T18:52:32.667Z,10.33
2019-01-27T18:57:49.628Z,7.43
2019-01-27T19:03:00.776Z,8.80
2019-01-27T19:08:40.111Z,12.87
2019-01-27T19:14:10.248Z,7.90
2019-01-27T19:19:32.176Z,9.70
2019-01-27T19:24:45.855Z,7.97
2019-01-27T19:30:13.184Z,9.00
2019-01-27T19:35:37.506Z,7.77
2019-01-27T19:41:20.427Z,14.90
2019-01-27T19:46:42.157Z,11.70
2019-01-27T19:52:16.518Z,10.77
2019-01-27T19:57:42.032Z,11.27
2019-01-27T20:03:05.446Z,13.13
2019-01-27T20:08:32.930Z,14.47
2019-01-27T20:13:55.855Z,12.23
2019-01-27T20:19:23.784Z,11.43
2019-01-27T20:24:49.586Z,12.03
2019-01-27T20:30:11.951Z,9.87
2019-01-27T20:35:28.363Z,13.03
2019-01-27T20:40:52.480Z,10.83
2019-01-27T20:46:14.156Z,11.30
2019-01-27T20:57:53.100Z,11.47
2019-01-27T21:03:16.883Z,11.00
2019-01-27T21:08:28.109Z,13.17
2019-01-27T21:13:49.109Z,15.30
2019-01-27T21:19:19.118Z,15.47
2019-01-27T21:24:24.966Z,13.63
2019-01-27T21:29:48.960Z,11.97
2019-01-27T21:34:55.252Z,11.97
2019-01-27T21:40:00.277Z,12.33
2019-01-27T21:45:08.068Z,11.47
2019-01-27T21:50:20.764Z,11.80
2019-01-27T21:58:57.495Z,10.77
2019-01-27T22:04:07.698Z,12.50
2019-01-27T22:09:15.641Z,12.13
2019-01-27T22:14:22.512Z,12.00
2019-01-27T22:19:28.634Z,10.03
2019-01-27T22:24:35.225Z,11.40
2019-01-27T22:29:43.185Z,10.00
2019-01-27T22:34:48.561Z,11.73
2019-01-27T22:39:55.659Z,10.20
2019-01-27T22:45:04.493Z,11.63
2019-01-27T22:50:14.100Z,8.93
2019-01-27T22:55:20.152Z,11.27
2019-01-27T23:00:58.403Z,12.43
2019-01-27T23:06:11.409Z,12.07
2019-01-27T23:11:18.017Z,9.90
2019-01-27T23:16:25.570Z,10.23
2019-01-27T23:21:33.052Z,10.33
2019-01-27T23:26:39.479Z,9.80
2019-01-27T23:31:46.229Z,8.90
2019-01-27T23:36:52.862Z,7.97
2019-01-27T23:41:59.471Z,8.73
2019-01-27T23:47:05.637Z,11.57
2019-01-27T23:52:11.283Z,7.23
2019-01-27T23:57:19.170Z,7.37
